sensor_id;sensor_type;location;lat;lon;timestamp;noise_LAeq;noise_LA_min;noise_LA_max;noise_LA01;noise_LA95
50333;Laerm;36239;48.132;-1.210;2023-04-15T00:01:25;44.44;35.94;74.24;;
50333;Laerm;36239;48.132;-1.210;2023-04-15T00:03:52;42.07;36.69;66.20;;
50333;Laerm;36239;48.132;-1.210;2023-04-15T00:06:19;46.86;35.04;72.93;;
50333;Laerm;36239;48.132;-1.210;2023-04-15T00:08:46;62.89;35.94;90.25;;
50333;Laerm;36239;48.132;-1.210;2023-04-15T00:11:12;50.59;34.69;82.51;;
50333;Laerm;36239;48.132;-1.210;2023-04-15T00:13:38;51.47;35.94;83.58;;
50333;Laerm;36239;48.132;-1.210;2023-04-15T00:16:05;51.79;34.69;75.53;;
50333;Laerm;36239;48.132;-1.210;2023-04-15T00:18:32;41.91;34.31;64.90;;
50333;Laerm;36239;48.132;-1.210;2023-04-15T00:20:58;60.06;35.04;83.74;;
50333;Laerm;36239;48.132;-1.210;2023-04-15T00:23:24;67.98;36.20;92.62;;
50333;Laerm;36239;48.132;-1.210;2023-04-15T00:25:50;52.79;35.66;81.24;;
50333;Laerm;36239;48.132;-1.210;2023-04-15T00:28:16;53.71;36.45;82.27;;
50333;Laerm;36239;48.132;-1.210;2023-04-15T00:30:43;51.49;36.77;79.90;;
50333;Laerm;36239;48.132;-1.210;2023-04-15T00:33:09;55.60;36.20;82.95;;
50333;Laerm;36239;48.132;-1.210;2023-04-15T00:35:35;63.03;35.36;88.67;;
50333;Laerm;36239;48.132;-1.210;2023-04-15T00:38:02;55.35;35.66;87.67;;
50333;Laerm;36239;48.132;-1.210;2023-04-15T00:40:29;56.65;36.45;88.22;;
50333;Laerm;36239;48.132;-1.210;2023-04-15T00:42:55;47.53;37.70;79.17;;
50333;Laerm;36239;48.132;-1.210;2023-04-15T00:45:21;57.74;35.94;89.74;;
50333;Laerm;36239;48.132;-1.210;2023-04-15T00:47:48;52.02;36.45;81.29;;
50333;Laerm;36239;48.132;-1.210;2023-04-15T00:50:14;55.34;36.20;83.60;;
50333;Laerm;36239;48.132;-1.210;2023-04-15T00:52:40;48.96;36.20;77.64;;
50333;Laerm;36239;48.132;-1.210;2023-04-15T00:55:07;72.64;37.32;101.92;;
50333;Laerm;36239;48.132;-1.210;2023-04-15T00:57:34;64.95;35.36;93.69;;
50333;Laerm;36239;48.132;-1.210;2023-04-15T01:00:01;42.42;35.36;68.27;;
50333;Laerm;36239;48.132;-1.210;2023-04-15T01:02:27;45.27;34.69;71.46;;
50333;Laerm;36239;48.132;-1.210;2023-04-15T01:04:53;39.48;33.90;62.59;;
50333;Laerm;36239;48.132;-1.210;2023-04-15T01:07:19;66.43;34.31;93.45;;
50333;Laerm;36239;48.132;-1.210;2023-04-15T01:09:45;46.26;35.36;73.50;;
50333;Laerm;36239;48.132;-1.210;2023-04-15T01:12:12;41.25;33.90;60.77;;
50333;Laerm;36239;48.132;-1.210;2023-04-15T01:14:40;39.19;33.44;55.90;;
50333;Laerm;36239;48.132;-1.210;2023-04-15T01:17:06;43.77;35.04;67.24;;
50333;Laerm;36239;48.132;-1.210;2023-04-15T01:19:32;55.50;34.69;87.40;;
50333;Laerm;36239;48.132;-1.210;2023-04-15T01:21:58;43.43;33.09;70.53;;
50333;Laerm;36239;48.132;-1.210;2023-04-15T01:24:25;45.53;35.94;72.41;;
50333;Laerm;36239;48.132;-1.210;2023-04-15T01:26:51;56.43;35.04;86.13;;
50333;Laerm;36239;48.132;-1.210;2023-04-15T01:29:17;57.07;35.36;82.94;;
50333;Laerm;36239;48.132;-1.210;2023-04-15T01:31:53;51.83;35.66;75.72;;
50333;Laerm;36239;48.132;-1.210;2023-04-15T01:34:19;50.04;34.69;78.47;;
50333;Laerm;36239;48.132;-1.210;2023-04-15T01:36:46;57.81;34.69;81.29;;
50333;Laerm;36239;48.132;-1.210;2023-04-15T01:39:12;46.64;33.44;73.40;;
50333;Laerm;36239;48.132;-1.210;2023-04-15T01:41:38;38.57;34.31;46.07;;
50333;Laerm;36239;48.132;-1.210;2023-04-15T01:44:05;49.35;35.36;80.07;;
50333;Laerm;36239;48.132;-1.210;2023-04-15T01:46:32;67.42;34.69;97.95;;
50333;Laerm;36239;48.132;-1.210;2023-04-15T01:48:58;48.87;35.04;74.93;;
50333;Laerm;36239;48.132;-1.210;2023-04-15T01:51:24;49.21;35.66;81.24;;
50333;Laerm;36239;48.132;-1.210;2023-04-15T01:53:50;59.81;35.66;82.79;;
50333;Laerm;36239;48.132;-1.210;2023-04-15T01:56:17;51.98;35.36;79.26;;
50333;Laerm;36239;48.132;-1.210;2023-04-15T01:58:43;48.55;35.66;76.90;;
50333;Laerm;36239;48.132;-1.210;2023-04-15T02:01:09;53.56;35.36;83.39;;
50333;Laerm;36239;48.132;-1.210;2023-04-15T02:03:36;44.24;35.36;68.86;;
50333;Laerm;36239;48.132;-1.210;2023-04-15T02:06:04;41.58;35.94;64.71;;
50333;Laerm;36239;48.132;-1.210;2023-04-15T02:08:30;58.72;35.36;87.80;;
50333;Laerm;36239;48.132;-1.210;2023-04-15T02:10:56;54.95;34.69;83.15;;
50333;Laerm;36239;48.132;-1.210;2023-04-15T02:13:22;52.25;35.66;80.86;;
50333;Laerm;36239;48.132;-1.210;2023-04-15T02:15:49;51.21;34.69;76.76;;
50333;Laerm;36239;48.132;-1.210;2023-04-15T02:18:15;42.84;35.36;65.58;;
50333;Laerm;36239;48.132;-1.210;2023-04-15T02:20:41;44.19;35.04;73.73;;
50333;Laerm;36239;48.132;-1.210;2023-04-15T02:23:08;42.34;34.69;67.61;;
50333;Laerm;36239;48.132;-1.210;2023-04-15T02:25:36;45.74;35.36;70.25;;
50333;Laerm;36239;48.132;-1.210;2023-04-15T02:28:04;41.68;34.31;65.14;;
50333;Laerm;36239;48.132;-1.210;2023-04-15T02:30:31;41.31;35.04;63.70;;
50333;Laerm;36239;48.132;-1.210;2023-04-15T02:32:57;47.97;35.66;71.79;;
50333;Laerm;36239;48.132;-1.210;2023-04-15T02:35:23;49.71;35.04;75.22;;
50333;Laerm;36239;48.132;-1.210;2023-04-15T02:37:50;54.41;35.36;80.63;;
50333;Laerm;36239;48.132;-1.210;2023-04-15T02:40:17;61.17;35.04;89.85;;
50333;Laerm;36239;48.132;-1.210;2023-04-15T02:42:43;48.25;34.69;75.65;;
50333;Laerm;36239;48.132;-1.210;2023-04-15T02:45:09;47.21;35.94;80.81;;
50333;Laerm;36239;48.132;-1.210;2023-04-15T02:47:36;39.27;35.04;55.18;;
50333;Laerm;36239;48.132;-1.210;2023-04-15T02:50:06;45.20;34.69;71.01;;
50333;Laerm;36239;48.132;-1.210;2023-04-15T02:52:33;39.34;33.90;57.13;;
50333;Laerm;36239;48.132;-1.210;2023-04-15T02:55:00;47.57;34.31;76.43;;
50333;Laerm;36239;48.132;-1.210;2023-04-15T02:57:27;41.85;35.04;67.27;;
50333;Laerm;36239;48.132;-1.210;2023-04-15T02:59:54;47.61;35.04;64.75;;
50333;Laerm;36239;48.132;-1.210;2023-04-15T03:02:20;46.94;34.69;73.45;;
50333;Laerm;36239;48.132;-1.210;2023-04-15T03:04:46;45.07;34.69;73.92;;
50333;Laerm;36239;48.132;-1.210;2023-04-15T03:07:12;39.61;34.69;49.19;;
50333;Laerm;36239;48.132;-1.210;2023-04-15T03:09:38;41.05;34.69;63.13;;
50333;Laerm;36239;48.132;-1.210;2023-04-15T03:12:05;40.66;36.91;58.41;;
50333;Laerm;36239;48.132;-1.210;2023-04-15T03:14:31;55.34;35.66;83.73;;
50333;Laerm;36239;48.132;-1.210;2023-04-15T03:16:57;39.29;35.04;54.06;;
50333;Laerm;36239;48.132;-1.210;2023-04-15T03:19:26;39.13;35.36;55.00;;
50333;Laerm;36239;48.132;-1.210;2023-04-15T03:21:52;42.76;35.04;64.95;;
50333;Laerm;36239;48.132;-1.210;2023-04-15T03:24:18;43.87;35.36;66.19;;
50333;Laerm;36239;48.132;-1.210;2023-04-15T03:26:45;45.77;34.31;70.10;;
50333;Laerm;36239;48.132;-1.210;2023-04-15T03:29:11;39.70;35.66;44.03;;
50333;Laerm;36239;48.132;-1.210;2023-04-15T03:31:37;40.58;33.90;60.51;;
50333;Laerm;36239;48.132;-1.210;2023-04-15T03:34:03;39.88;35.86;53.82;;
50333;Laerm;36239;48.132;-1.210;2023-04-15T03:36:29;39.53;34.31;57.98;;
50333;Laerm;36239;48.132;-1.210;2023-04-15T03:38:58;47.15;35.66;70.77;;
50333;Laerm;36239;48.132;-1.210;2023-04-15T03:41:23;40.73;35.66;53.94;;
50333;Laerm;36239;48.132;-1.210;2023-04-15T03:43:49;42.88;35.86;67.64;;
50333;Laerm;36239;48.132;-1.210;2023-04-15T03:46:18;40.03;36.45;58.08;;
50333;Laerm;36239;48.132;-1.210;2023-04-15T03:48:45;39.49;35.36;44.90;;
50333;Laerm;36239;48.132;-1.210;2023-04-15T03:51:11;39.62;34.69;59.40;;
50333;Laerm;36239;48.132;-1.210;2023-04-15T03:53:37;40.22;35.94;60.13;;
50333;Laerm;36239;48.132;-1.210;2023-04-15T03:56:03;42.95;35.36;67.98;;
50333;Laerm;36239;48.132;-1.210;2023-04-15T03:58:30;41.49;34.69;66.00;;
50333;Laerm;36239;48.132;-1.210;2023-04-15T04:00:55;43.59;35.94;66.56;;
50333;Laerm;36239;48.132;-1.210;2023-04-15T04:03:21;43.30;35.04;71.46;;
50333;Laerm;36239;48.132;-1.210;2023-04-15T04:05:48;44.84;35.36;71.78;;
50333;Laerm;36239;48.132;-1.210;2023-04-15T04:08:14;40.99;35.36;61.12;;
50333;Laerm;36239;48.132;-1.210;2023-04-15T04:10:41;46.19;35.01;71.03;;
50333;Laerm;36239;48.132;-1.210;2023-04-15T04:13:07;44.34;35.66;66.38;;
50333;Laerm;36239;48.132;-1.210;2023-04-15T04:15:33;41.00;34.31;65.50;;
50333;Laerm;36239;48.132;-1.210;2023-04-15T04:17:59;39.93;34.31;57.54;;
50333;Laerm;36239;48.132;-1.210;2023-04-15T04:20:25;47.08;33.44;70.83;;
50333;Laerm;36239;48.132;-1.210;2023-04-15T04:22:51;40.69;34.31;63.35;;
50333;Laerm;36239;48.132;-1.210;2023-04-15T04:25:17;40.80;33.90;55.78;;
50333;Laerm;36239;48.132;-1.210;2023-04-15T04:27:43;50.16;35.36;80.04;;
50333;Laerm;36239;48.132;-1.210;2023-04-15T04:30:10;48.44;36.45;64.63;;
50333;Laerm;36239;48.132;-1.210;2023-04-15T04:32:36;51.86;36.45;67.66;;
50333;Laerm;36239;48.132;-1.210;2023-04-15T04:35:03;52.65;36.20;68.23;;
50333;Laerm;36239;48.132;-1.210;2023-04-15T04:37:29;54.07;37.12;69.86;;
50333;Laerm;36239;48.132;-1.210;2023-04-15T04:39:55;53.64;36.69;70.04;;
50333;Laerm;36239;48.132;-1.210;2023-04-15T04:42:21;53.49;37.88;68.34;;
50333;Laerm;36239;48.132;-1.210;2023-04-15T04:44:47;53.87;37.70;70.33;;
50333;Laerm;36239;48.132;-1.210;2023-04-15T04:47:13;53.00;35.66;70.75;;
50333;Laerm;36239;48.132;-1.210;2023-04-15T04:49:39;51.91;36.91;67.75;;
50333;Laerm;36239;48.132;-1.210;2023-04-15T04:52:05;53.14;36.20;75.39;;
50333;Laerm;36239;48.132;-1.210;2023-04-15T04:54:32;45.85;36.20;58.75;;
50333;Laerm;36239;48.132;-1.210;2023-04-15T04:56:58;47.58;34.69;59.24;;
50333;Laerm;36239;48.132;-1.210;2023-04-15T04:59:24;43.38;35.36;58.05;;
50333;Laerm;36239;48.132;-1.210;2023-04-15T05:01:50;43.21;36.69;61.34;;
50333;Laerm;36239;48.132;-1.210;2023-04-15T05:04:17;46.20;36.20;62.07;;
50333;Laerm;36239;48.132;-1.210;2023-04-15T05:06:43;45.34;35.94;62.18;;
50333;Laerm;36239;48.132;-1.210;2023-04-15T05:09:09;46.17;36.69;60.80;;
50333;Laerm;36239;48.132;-1.210;2023-04-15T05:11:35;42.35;36.69;56.29;;
50333;Laerm;36239;48.132;-1.210;2023-04-15T05:14:01;42.01;37.70;55.53;;
50333;Laerm;36239;48.132;-1.210;2023-04-15T05:16:27;42.13;37.12;66.17;;
50333;Laerm;36239;48.132;-1.210;2023-04-15T05:18:53;45.74;37.88;63.02;;
50333;Laerm;36239;48.132;-1.210;2023-04-15T05:21:19;44.51;37.70;57.39;;
50333;Laerm;36239;48.132;-1.210;2023-04-15T05:23:45;43.46;37.70;57.42;;
50333;Laerm;36239;48.132;-1.210;2023-04-15T05:26:11;43.36;35.04;57.91;;
50333;Laerm;36239;48.132;-1.210;2023-04-15T05:28:37;44.12;36.20;60.66;;
50333;Laerm;36239;48.132;-1.210;2023-04-15T05:31:03;41.41;36.20;51.25;;
50333;Laerm;36239;48.132;-1.210;2023-04-15T05:33:30;42.08;35.59;54.85;;
50333;Laerm;36239;48.132;-1.210;2023-04-15T05:35:56;41.93;37.70;55.10;;
50333;Laerm;36239;48.132;-1.210;2023-04-15T05:38:22;42.87;37.52;62.77;;
50333;Laerm;36239;48.132;-1.210;2023-04-15T05:40:48;44.71;38.21;60.63;;
50333;Laerm;36239;48.132;-1.210;2023-04-15T05:43:14;53.27;37.12;82.74;;
50333;Laerm;36239;48.132;-1.210;2023-04-15T05:45:40;41.63;38.37;55.44;;
50333;Laerm;36239;48.132;-1.210;2023-04-15T05:48:06;41.89;37.88;62.55;;
50333;Laerm;36239;48.132;-1.210;2023-04-15T05:50:33;44.96;38.67;62.66;;
50333;Laerm;36239;48.132;-1.210;2023-04-15T05:52:59;46.31;37.88;62.74;;
50333;Laerm;36239;48.132;-1.210;2023-04-15T05:55:25;45.97;38.95;62.15;;
50333;Laerm;36239;48.132;-1.210;2023-04-15T05:57:52;43.95;37.52;61.43;;
50333;Laerm;36239;48.132;-1.210;2023-04-15T06:00:18;44.38;36.20;58.98;;
50333;Laerm;36239;48.132;-1.210;2023-04-15T06:02:44;44.60;38.05;58.19;;
50333;Laerm;36239;48.132;-1.210;2023-04-15T06:05:10;43.97;38.52;56.91;;
50333;Laerm;36239;48.132;-1.210;2023-04-15T06:07:37;52.76;38.52;73.51;;
50333;Laerm;36239;48.132;-1.210;2023-04-15T06:10:03;46.60;37.70;64.80;;
50333;Laerm;36239;48.132;-1.210;2023-04-15T06:12:29;44.55;38.05;70.83;;
50333;Laerm;36239;48.132;-1.210;2023-04-15T06:14:55;42.96;38.05;67.89;;
50333;Laerm;36239;48.132;-1.210;2023-04-15T06:17:21;42.12;38.21;53.60;;
50333;Laerm;36239;48.132;-1.210;2023-04-15T06:19:47;41.57;38.05;53.14;;
50333;Laerm;36239;48.132;-1.210;2023-04-15T06:22:15;46.03;37.70;68.88;;
50333;Laerm;36239;48.132;-1.210;2023-04-15T06:24:41;43.65;38.52;63.18;;
50333;Laerm;36239;48.132;-1.210;2023-04-15T06:27:07;51.06;38.37;68.40;;
50333;Laerm;36239;48.132;-1.210;2023-04-15T06:29:33;42.00;38.37;54.59;;
50333;Laerm;36239;48.132;-1.210;2023-04-15T06:31:59;46.69;38.37;72.57;;
50333;Laerm;36239;48.132;-1.210;2023-04-15T06:34:25;48.09;38.02;74.85;;
50333;Laerm;36239;48.132;-1.210;2023-04-15T06:36:52;47.02;39.58;62.37;;
50333;Laerm;36239;48.132;-1.210;2023-04-15T06:39:19;49.93;38.67;67.79;;
50333;Laerm;36239;48.132;-1.210;2023-04-15T06:41:45;46.05;38.52;65.03;;
50333;Laerm;36239;48.132;-1.210;2023-04-15T06:44:11;44.94;37.32;60.52;;
50333;Laerm;36239;48.132;-1.210;2023-04-15T06:46:37;45.06;38.81;59.80;;
50333;Laerm;36239;48.132;-1.210;2023-04-15T06:49:03;45.57;38.21;66.43;;
50333;Laerm;36239;48.132;-1.210;2023-04-15T06:51:30;45.62;38.37;63.87;;
50333;Laerm;36239;48.132;-1.210;2023-04-15T06:53:56;46.98;38.67;61.28;;
50333;Laerm;36239;48.132;-1.210;2023-04-15T06:56:22;47.99;38.37;75.58;;
50333;Laerm;36239;48.132;-1.210;2023-04-15T06:58:48;48.19;39.21;70.43;;
50333;Laerm;36239;48.132;-1.210;2023-04-15T07:01:14;50.87;38.95;75.01;;
50333;Laerm;36239;48.132;-1.210;2023-04-15T07:03:40;45.21;38.67;62.65;;
50333;Laerm;36239;48.132;-1.210;2023-04-15T07:06:06;44.08;38.21;64.81;;
50333;Laerm;36239;48.132;-1.210;2023-04-15T07:08:34;51.84;38.05;68.72;;
50333;Laerm;36239;48.132;-1.210;2023-04-15T07:11:00;45.49;38.95;61.88;;
50333;Laerm;36239;48.132;-1.210;2023-04-15T07:13:26;45.02;38.67;60.33;;
50333;Laerm;36239;48.132;-1.210;2023-04-15T07:15:52;48.07;39.46;73.21;;
50333;Laerm;36239;48.132;-1.210;2023-04-15T07:18:18;45.50;39.08;65.76;;
50333;Laerm;36239;48.132;-1.210;2023-04-15T07:20:44;48.08;38.52;76.21;;
50333;Laerm;36239;48.132;-1.210;2023-04-15T07:23:10;43.51;38.52;56.59;;
50333;Laerm;36239;48.132;-1.210;2023-04-15T07:25:36;46.88;39.08;72.92;;
50333;Laerm;36239;48.132;-1.210;2023-04-15T07:28:02;55.43;38.37;79.86;;
50333;Laerm;36239;48.132;-1.210;2023-04-15T07:30:28;49.49;38.05;71.88;;
50333;Laerm;36239;48.132;-1.210;2023-04-15T07:32:55;53.97;38.37;84.98;;
50333;Laerm;36239;48.132;-1.210;2023-04-15T07:35:21;60.87;39.58;86.24;;
50333;Laerm;36239;48.132;-1.210;2023-04-15T07:37:47;56.26;39.81;80.98;;
50333;Laerm;36239;48.132;-1.210;2023-04-15T07:40:13;47.27;39.34;70.78;;
50333;Laerm;36239;48.132;-1.210;2023-04-15T07:42:40;61.41;39.21;82.54;;
50333;Laerm;36239;48.132;-1.210;2023-04-15T07:45:07;54.15;38.95;73.98;;
50333;Laerm;36239;48.132;-1.210;2023-04-15T07:47:33;55.50;38.52;76.32;;
50333;Laerm;36239;48.132;-1.210;2023-04-15T07:49:59;54.41;40.23;81.60;;
50333;Laerm;36239;48.132;-1.210;2023-04-15T07:52:27;72.32;38.52;95.18;;
50333;Laerm;36239;48.132;-1.210;2023-04-15T07:54:53;51.79;38.52;77.19;;
50333;Laerm;36239;48.132;-1.210;2023-04-15T07:57:19;49.03;38.95;73.60;;
50333;Laerm;36239;48.132;-1.210;2023-04-15T07:59:45;54.29;39.34;83.70;;
50333;Laerm;36239;48.132;-1.210;2023-04-15T08:02:11;60.00;39.34;88.05;;
50333;Laerm;36239;48.132;-1.210;2023-04-15T08:04:37;55.63;38.87;81.67;;
50333;Laerm;36239;48.132;-1.210;2023-04-15T08:07:03;59.28;38.81;83.63;;
50333;Laerm;36239;48.132;-1.210;2023-04-15T08:09:29;43.53;38.81;63.71;;
50333;Laerm;36239;48.132;-1.210;2023-04-15T08:11:56;70.23;38.95;94.08;;
50333;Laerm;36239;48.132;-1.210;2023-04-15T08:14:23;59.88;40.53;80.35;;
50333;Laerm;36239;48.132;-1.210;2023-04-15T08:16:49;75.98;41.48;98.42;;
50333;Laerm;36239;48.132;-1.210;2023-04-15T08:19:15;60.23;38.95;91.09;;
50333;Laerm;36239;48.132;-1.210;2023-04-15T08:21:41;70.51;39.70;94.41;;
50333;Laerm;36239;48.132;-1.210;2023-04-15T08:24:07;60.98;39.46;90.15;;
50333;Laerm;36239;48.132;-1.210;2023-04-15T08:26:33;64.21;38.37;88.29;;
50333;Laerm;36239;48.132;-1.210;2023-04-15T08:29:00;61.16;39.99;86.54;;
50333;Laerm;36239;48.132;-1.210;2023-04-15T08:31:26;66.73;40.13;93.50;;
50333;Laerm;36239;48.132;-1.210;2023-04-15T08:33:55;66.86;40.43;91.15;;
50333;Laerm;36239;48.132;-1.210;2023-04-15T08:36:22;68.70;43.19;91.63;;
50333;Laerm;36239;48.132;-1.210;2023-04-15T08:38:48;55.70;41.82;83.50;;
50333;Laerm;36239;48.132;-1.210;2023-04-15T08:41:19;63.49;42.22;87.53;;
50333;Laerm;36239;48.132;-1.210;2023-04-15T08:43:50;61.46;40.71;87.33;;
50333;Laerm;36239;48.132;-1.210;2023-04-15T08:46:17;63.81;39.58;93.86;;
50333;Laerm;36239;48.132;-1.210;2023-04-15T08:48:43;55.50;41.61;83.46;;
50333;Laerm;36239;48.132;-1.210;2023-04-15T08:51:11;57.68;40.89;85.42;;
50333;Laerm;36239;48.132;-1.210;2023-04-15T08:53:42;61.34;40.62;93.58;;
50333;Laerm;36239;48.132;-1.210;2023-04-15T08:56:08;58.43;40.03;87.12;;
50333;Laerm;36239;48.132;-1.210;2023-04-15T08:58:35;65.24;41.75;91.52;;
50333;Laerm;36239;48.132;-1.210;2023-04-15T09:01:01;69.47;41.38;95.33;;
50333;Laerm;36239;48.132;-1.210;2023-04-15T09:03:27;57.20;40.80;90.73;;
50333;Laerm;36239;48.132;-1.210;2023-04-15T09:05:53;63.47;40.62;86.99;;
50333;Laerm;36239;48.132;-1.210;2023-04-15T09:08:19;56.83;40.33;81.78;;
50333;Laerm;36239;48.132;-1.210;2023-04-15T09:10:45;68.32;42.41;91.02;;
50333;Laerm;36239;48.132;-1.210;2023-04-15T09:13:11;64.30;42.65;90.60;;
50333;Laerm;36239;48.132;-1.210;2023-04-15T09:15:38;74.60;42.47;96.06;;
50333;Laerm;36239;48.132;-1.210;2023-04-15T09:18:04;82.28;41.89;106.74;;
50333;Laerm;36239;48.132;-1.210;2023-04-15T09:20:30;83.98;42.09;107.27;;
50333;Laerm;36239;48.132;-1.210;2023-04-15T09:23:10;72.58;41.46;98.73;;
50333;Laerm;36239;48.132;-1.210;2023-04-15T09:25:36;68.54;41.61;89.08;;
50333;Laerm;36239;48.132;-1.210;2023-04-15T09:28:03;80.40;41.75;104.19;;
50333;Laerm;36239;48.132;-1.210;2023-04-15T09:30:29;76.07;42.53;99.47;;
50333;Laerm;36239;48.132;-1.210;2023-04-15T09:32:57;63.30;41.22;87.75;;
50333;Laerm;36239;48.132;-1.210;2023-04-15T09:35:23;76.40;42.09;102.55;;
50333;Laerm;36239;48.132;-1.210;2023-04-15T09:37:50;71.21;41.61;95.21;;
50333;Laerm;36239;48.132;-1.210;2023-04-15T09:40:35;77.69;42.16;104.89;;
50333;Laerm;36239;48.132;-1.210;2023-04-15T09:43:02;67.05;40.98;89.52;;
50333;Laerm;36239;48.132;-1.210;2023-04-15T09:45:30;59.50;39.58;89.47;;
50333;Laerm;36239;48.132;-1.210;2023-04-15T09:47:57;71.47;43.81;95.67;;
50333;Laerm;36239;48.132;-1.210;2023-04-15T09:50:23;70.07;44.80;93.54;;
50333;Laerm;36239;48.132;-1.210;2023-04-15T09:52:51;64.40;40.80;87.28;;
50333;Laerm;36239;48.132;-1.210;2023-04-15T09:55:17;71.76;40.89;93.86;;
50333;Laerm;36239;48.132;-1.210;2023-04-15T09:57:44;70.00;43.29;94.26;;
50333;Laerm;36239;48.132;-1.210;2023-04-15T10:00:12;69.01;44.39;91.87;;
50333;Laerm;36239;48.132;-1.210;2023-04-15T10:02:39;68.30;43.39;92.42;;
50333;Laerm;36239;48.132;-1.210;2023-04-15T10:05:05;68.62;44.31;95.57;;
50333;Laerm;36239;48.132;-1.210;2023-04-15T10:07:32;83.01;43.81;103.80;;
50333;Laerm;36239;48.132;-1.210;2023-04-15T10:09:58;84.83;44.58;104.46;;
50333;Laerm;36239;48.132;-1.210;2023-04-15T10:12:24;73.93;43.99;95.42;;
50333;Laerm;36239;48.132;-1.210;2023-04-15T10:15:13;80.22;44.11;105.75;;
50333;Laerm;36239;48.132;-1.210;2023-04-15T10:17:39;65.02;40.43;88.19;;
50333;Laerm;36239;48.132;-1.210;2023-04-15T10:20:08;65.24;40.62;90.84;;
50333;Laerm;36239;48.132;-1.210;2023-04-15T10:22:35;74.16;41.48;101.01;;
50333;Laerm;36239;48.132;-1.210;2023-04-15T10:25:02;71.03;41.06;96.50;;
50333;Laerm;36239;48.132;-1.210;2023-04-15T10:27:29;75.70;40.71;99.80;;
50333;Laerm;36239;48.132;-1.210;2023-04-15T10:29:55;81.61;42.09;104.16;;
50333;Laerm;36239;48.132;-1.210;2023-04-15T10:32:21;65.25;40.33;94.09;;
50333;Laerm;36239;48.132;-1.210;2023-04-15T10:34:48;67.72;39.46;91.30;;
50333;Laerm;36239;48.132;-1.210;2023-04-15T10:37:20;64.11;39.34;93.94;;
50333;Laerm;36239;48.132;-1.210;2023-04-15T10:39:46;64.47;38.81;94.09;;
50333;Laerm;36239;48.132;-1.210;2023-04-15T10:42:13;81.62;38.67;107.16;;
50333;Laerm;36239;48.132;-1.210;2023-04-15T10:44:44;72.90;40.89;103.95;;
50333;Laerm;36239;48.132;-1.210;2023-04-15T10:47:14;74.29;41.53;99.98;;
50333;Laerm;36239;48.132;-1.210;2023-04-15T10:49:44;72.14;40.13;96.01;;
50333;Laerm;36239;48.132;-1.210;2023-04-15T10:52:10;72.58;41.06;94.56;;
50333;Laerm;36239;48.132;-1.210;2023-04-15T10:54:37;75.20;38.37;100.75;;
50333;Laerm;36239;48.132;-1.210;2023-04-15T10:59:30;70.56;40.03;97.45;;
50333;Laerm;36239;48.132;-1.210;2023-04-15T11:02:00;54.29;39.21;77.95;;
50333;Laerm;36239;48.132;-1.210;2023-04-15T11:07:12;57.35;39.46;80.76;;
50333;Laerm;36239;48.132;-1.210;2023-04-15T11:09:38;66.63;39.34;96.70;;
50333;Laerm;36239;48.132;-1.210;2023-04-15T11:12:05;66.59;38.21;91.34;;
50333;Laerm;36239;48.132;-1.210;2023-04-15T11:14:38;74.56;39.58;97.03;;
50333;Laerm;36239;48.132;-1.210;2023-04-15T11:17:04;70.47;40.13;95.10;;
50333;Laerm;36239;48.132;-1.210;2023-04-15T11:19:37;76.14;42.16;101.07;;
50333;Laerm;36239;48.132;-1.210;2023-04-15T11:22:10;76.03;41.89;100.78;;
50333;Laerm;36239;48.132;-1.210;2023-04-15T11:24:36;66.23;41.06;87.70;;
50333;Laerm;36239;48.132;-1.210;2023-04-15T11:27:19;69.21;40.62;93.07;;
50333;Laerm;36239;48.132;-1.210;2023-04-15T11:29:45;74.60;41.53;99.80;;
50333;Laerm;36239;48.132;-1.210;2023-04-15T11:32:11;73.60;40.62;93.24;;
50333;Laerm;36239;48.132;-1.210;2023-04-15T11:34:37;79.52;40.33;101.09;;
50333;Laerm;36239;48.132;-1.210;2023-04-15T11:37:06;71.07;40.43;100.80;;
50333;Laerm;36239;48.132;-1.210;2023-04-15T11:39:32;76.04;40.43;102.47;;
50333;Laerm;36239;48.132;-1.210;2023-04-15T11:41:58;78.96;40.71;103.23;;
50333;Laerm;36239;48.132;-1.210;2023-04-15T11:44:24;70.12;41.14;95.22;;
50333;Laerm;36239;48.132;-1.210;2023-04-15T11:46:50;59.52;40.33;85.61;;
50333;Laerm;36239;48.132;-1.210;2023-04-15T11:49:29;75.52;39.81;101.23;;
50333;Laerm;36239;48.132;-1.210;2023-04-15T11:51:59;77.25;40.43;103.41;;
50333;Laerm;36239;48.132;-1.210;2023-04-15T11:54:25;74.65;41.30;101.63;;
50333;Laerm;36239;48.132;-1.210;2023-04-15T11:56:52;65.26;41.14;88.26;;
50333;Laerm;36239;48.132;-1.210;2023-04-15T11:59:19;75.63;41.82;97.95;;
50333;Laerm;36239;48.132;-1.210;2023-04-15T12:01:45;56.07;39.34;79.16;;
50333;Laerm;36239;48.132;-1.210;2023-04-15T12:06:38;72.72;40.43;94.31;;
50333;Laerm;36239;48.132;-1.210;2023-04-15T12:09:13;75.41;40.03;101.42;;
50333;Laerm;36239;48.132;-1.210;2023-04-15T12:16:36;75.54;41.53;99.79;;
50333;Laerm;36239;48.132;-1.210;2023-04-15T12:19:09;69.59;41.68;92.85;;
50333;Laerm;36239;48.132;-1.210;2023-04-15T12:21:37;72.57;40.98;94.86;;
50333;Laerm;36239;48.132;-1.210;2023-04-15T12:24:04;77.47;42.59;103.29;;
50333;Laerm;36239;48.132;-1.210;2023-04-15T12:26:33;74.79;43.04;98.75;;
50333;Laerm;36239;48.132;-1.210;2023-04-15T12:29:06;82.23;42.76;103.43;;
50333;Laerm;36239;48.132;-1.210;2023-04-15T12:31:33;76.34;42.76;101.69;;
50333;Laerm;36239;48.132;-1.210;2023-04-15T12:34:00;67.91;42.47;97.25;;
50333;Laerm;36239;48.132;-1.210;2023-04-15T12:36:26;66.71;41.46;90.76;;
50333;Laerm;36239;48.132;-1.210;2023-04-15T12:38:53;71.87;41.68;98.83;;
50333;Laerm;36239;48.132;-1.210;2023-04-15T12:41:19;79.05;41.30;99.65;;
50333;Laerm;36239;48.132;-1.210;2023-04-15T12:43:46;70.29;39.81;96.30;;
50333;Laerm;36239;48.132;-1.210;2023-04-15T12:46:12;69.97;39.81;95.69;;
50333;Laerm;36239;48.132;-1.210;2023-04-15T12:48:39;69.02;39.21;92.63;;
50333;Laerm;36239;48.132;-1.210;2023-04-15T12:51:05;56.63;39.34;79.64;;
50333;Laerm;36239;48.132;-1.210;2023-04-15T12:53:31;72.24;38.05;94.21;;
50333;Laerm;36239;48.132;-1.210;2023-04-15T12:55:57;71.14;39.92;95.22;;
50333;Laerm;36239;48.132;-1.210;2023-04-15T12:58:23;74.59;41.96;99.99;;
50333;Laerm;36239;48.132;-1.210;2023-04-15T13:00:49;74.36;41.61;97.11;;
50333;Laerm;36239;48.132;-1.210;2023-04-15T13:03:15;69.94;40.13;94.08;;
50333;Laerm;36239;48.132;-1.210;2023-04-15T13:05:41;63.44;40.98;90.29;;
50333;Laerm;36239;48.132;-1.210;2023-04-15T13:08:07;69.20;41.14;93.65;;
50333;Laerm;36239;48.132;-1.210;2023-04-15T13:10:34;67.18;41.30;92.25;;
50333;Laerm;36239;48.132;-1.210;2023-04-15T13:13:01;75.93;39.58;97.69;;
50333;Laerm;36239;48.132;-1.210;2023-04-15T13:15:28;70.14;40.13;94.68;;
50333;Laerm;36239;48.132;-1.210;2023-04-15T13:17:54;65.63;40.03;90.99;;
50333;Laerm;36239;48.132;-1.210;2023-04-15T13:20:20;67.24;40.13;87.51;;
50333;Laerm;36239;48.132;-1.210;2023-04-15T13:22:46;68.22;39.92;92.03;;
50333;Laerm;36239;48.132;-1.210;2023-04-15T13:25:12;73.28;40.13;99.03;;
50333;Laerm;36239;48.132;-1.210;2023-04-15T13:27:38;70.58;41.53;94.29;;
50333;Laerm;36239;48.132;-1.210;2023-04-15T13:30:05;70.70;40.23;99.91;;
50333;Laerm;36239;48.132;-1.210;2023-04-15T13:32:31;73.32;40.23;100.29;;
50333;Laerm;36239;48.132;-1.210;2023-04-15T13:34:57;63.19;41.68;90.50;;
50333;Laerm;36239;48.132;-1.210;2023-04-15T13:37:27;77.41;41.38;98.58;;
50333;Laerm;36239;48.132;-1.210;2023-04-15T13:39:53;76.03;40.53;98.07;;
50333;Laerm;36239;48.132;-1.210;2023-04-15T13:42:20;63.10;41.68;89.30;;